createdAt,value
2023-05-05T00:02:25.292Z,4.70
2023-05-05T00:07:47.070Z,4.50
2023-05-05T00:13:09.147Z,4.78
2023-05-05T00:18:31.367Z,4.72
2023-05-05T00:23:53.379Z,4.43
2023-05-05T00:29:15.619Z,4.20
2023-05-05T00:34:37.349Z,4.20
2023-05-05T00:39:59.222Z,4.20
2023-05-05T00:45:21.077Z,3.92
2023-05-05T00:50:43.828Z,4.25
2023-05-05T00:56:06.610Z,4.10
2023-05-05T01:01:28.442Z,4.00
2023-05-05T01:07:13.682Z,4.18
2023-05-05T01:12:53.533Z,4.00
2023-05-05T01:18:30.716Z,4.00
2023-05-05T01:24:20.288Z,3.72
2023-05-05T01:30:00.857Z,4.43
2023-05-05T01:35:28.709Z,3.92
2023-05-05T01:40:58.506Z,3.83
2023-05-05T01:46:23.663Z,3.95
2023-05-05T01:51:47.878Z,4.60
2023-05-05T01:57:11.272Z,4.40
2023-05-05T02:02:35.950Z,4.07
2023-05-05T02:08:00.033Z,4.38
2023-05-05T02:13:24.644Z,3.92
2023-05-05T02:18:47.424Z,4.13
2023-05-05T02:24:09.330Z,4.07
2023-05-05T02:29:44.834Z,4.70
2023-05-05T02:35:24.288Z,4.40
2023-05-05T02:40:48.130Z,4.07
2023-05-05T02:46:10.019Z,4.65
2023-05-05T02:51:32.522Z,4.68
2023-05-05T02:56:57.167Z,4.60
2023-05-05T03:02:33.309Z,4.25
2023-05-05T03:08:03.142Z,4.10
2023-05-05T03:13:27.907Z,4.18
2023-05-05T03:18:50.952Z,4.90
2023-05-05T03:24:19.909Z,4.55
2023-05-05T03:29:41.802Z,5.43
2023-05-05T03:35:03.619Z,5.05
2023-05-05T03:40:36.309Z,4.60
2023-05-05T03:46:02.483Z,5.63
2023-05-05T03:51:25.178Z,5.15
2023-05-05T03:56:46.999Z,5.60
2023-05-05T04:02:08.725Z,6.13
2023-05-05T04:07:30.473Z,5.45
2023-05-05T04:12:52.296Z,5.43
2023-05-05T04:18:14.186Z,7.03
2023-05-05T04:23:35.880Z,5.80
2023-05-05T04:28:57.630Z,6.32
2023-05-05T04:34:19.352Z,5.90
2023-05-05T04:39:41.546Z,6.57
2023-05-05T04:45:03.679Z,6.15
2023-05-05T04:50:25.438Z,6.82
2023-05-05T04:55:47.250Z,6.85
2023-05-05T05:01:08.983Z,6.95
2023-05-05T05:06:30.671Z,6.97
2023-05-05T05:11:52.376Z,7.57
2023-05-05T05:17:14.348Z,7.70
2023-05-05T05:22:38.635Z,7.00
2023-05-05T05:28:09.424Z,7.10
2023-05-05T05:33:32.567Z,6.68
2023-05-05T05:38:54.300Z,6.90
2023-05-05T05:44:15.970Z,7.15
2023-05-05T05:49:37.657Z,7.18
2023-05-05T05:54:59.387Z,6.80
2023-05-05T06:00:21.233Z,7.28
2023-05-05T06:05:44.909Z,7.97
2023-05-05T06:11:06.607Z,6.88
2023-05-05T06:16:28.455Z,6.85
2023-05-05T06:21:50.857Z,7.22
2023-05-05T06:27:12.615Z,6.75
2023-05-05T06:32:34.589Z,6.80
2023-05-05T06:37:56.333Z,6.85
2023-05-05T06:43:18.138Z,5.63
2023-05-05T06:48:39.869Z,5.20
2023-05-05T06:54:01.571Z,5.07
2023-05-05T06:59:23.346Z,4.38
2023-05-05T07:04:45.051Z,5.28
2023-05-05T07:10:07.686Z,5.70
2023-05-05T07:15:29.973Z,5.28
2023-05-05T07:20:51.741Z,3.88
2023-05-05T07:26:14.560Z,3.65
2023-05-05T07:31:36.321Z,3.83
2023-05-05T07:36:58.081Z,4.50
2023-05-05T07:42:21.040Z,3.25
2023-05-05T07:47:42.836Z,2.70
2023-05-05T07:53:13.731Z,2.90
2023-05-05T07:58:36.894Z,1.92
2023-05-05T08:03:58.656Z,1.92
2023-05-05T08:09:20.417Z,2.25
2023-05-05T08:14:42.472Z,2.20
2023-05-05T08:20:04.606Z,2.63
2023-05-05T08:25:27.033Z,2.60
2023-05-05T08:30:49.543Z,2.58
2023-05-05T08:36:11.593Z,2.70
2023-05-05T08:41:33.411Z,2.47
2023-05-05T08:46:56.678Z,2.38
2023-05-05T08:52:23.343Z,2.42
2023-05-05T08:57:53.019Z,2.70
2023-05-05T09:03:16.150Z,2.60
2023-05-05T09:08:38.710Z,2.10
2023-05-05T09:14:01.754Z,2.53
2023-05-05T09:19:23.615Z,2.22
2023-05-05T09:24:55.049Z,2.88
2023-05-05T09:30:23.303Z,2.28
2023-05-05T09:35:53.673Z,2.17
2023-05-05T09:41:15.906Z,2.03
2023-05-05T09:46:37.685Z,2.13
2023-05-05T09:52:11.318Z,2.30
2023-05-05T09:57:33.960Z,1.70
2023-05-05T10:03:02.749Z,1.98
2023-05-05T10:08:29.274Z,2.08
2023-05-05T10:13:51.141Z,2.30
2023-05-05T10:19:15.110Z,1.90
2023-05-05T10:24:50.728Z,1.90
2023-05-05T10:30:20.455Z,2.08
2023-05-05T10:35:44.341Z,1.95
2023-05-05T10:41:06.691Z,2.10
2023-05-05T10:46:29.122Z,1.77
2023-05-05T10:52:17.265Z,2.10
2023-05-05T10:57:43.790Z,1.80
2023-05-05T11:03:17.721Z,2.20
2023-05-05T11:08:45.518Z,1.58
2023-05-05T11:14:22.280Z,1.83
2023-05-05T11:19:44.483Z,1.80
2023-05-05T11:25:37.506Z,1.88
2023-05-05T11:31:02.893Z,9.30
2023-05-05T11:36:40.441Z,4.13
2023-05-05T11:42:14.995Z,2.10
2023-05-05T11:47:36.750Z,1.60
2023-05-05T11:52:58.666Z,2.00
2023-05-05T11:58:20.980Z,1.60
2023-05-05T12:03:45.326Z,1.58
2023-05-05T12:09:15.537Z,1.60
2023-05-05T12:14:47.325Z,1.63
2023-05-05T12:20:10.443Z,1.70
2023-05-05T12:25:37.185Z,1.45
2023-05-05T12:30:59.441Z,1.65
2023-05-05T12:36:21.348Z,2.25
2023-05-05T12:41:43.300Z,1.67
2023-05-05T12:47:05.553Z,2.08
2023-05-05T12:52:44.109Z,1.98
2023-05-05T12:58:06.387Z,2.50
2023-05-05T13:03:28.262Z,2.47
2023-05-05T13:08:50.133Z,2.45
2023-05-05T13:14:11.819Z,1.77
2023-05-05T13:19:35.649Z,2.03
2023-05-05T13:24:57.417Z,2.42
2023-05-05T13:30:20.586Z,2.72
2023-05-05T13:35:42.302Z,2.40
2023-05-05T13:41:04.152Z,1.95
2023-05-05T13:46:26.017Z,2.33
2023-05-05T13:51:47.818Z,2.08
2023-05-05T13:57:11.052Z,2.20
2023-05-05T14:02:33.162Z,1.90
2023-05-05T14:07:55.482Z,2.05
2023-05-05T14:13:17.361Z,2.45
2023-05-05T14:18:39.275Z,2.28
2023-05-05T14:24:01.005Z,2.53
2023-05-05T14:29:22.761Z,2.35
2023-05-05T14:34:45.082Z,2.03
2023-05-05T14:40:07.604Z,2.20
2023-05-05T14:45:29.655Z,1.90
2023-05-05T14:50:51.500Z,2.40
2023-05-05T14:56:14.180Z,1.83
2023-05-05T15:01:36.428Z,1.75
2023-05-05T15:06:58.244Z,4.00
2023-05-05T15:12:19.946Z,2.10
2023-05-05T15:17:41.886Z,1.80
2023-05-05T15:23:04.206Z,2.42
2023-05-05T15:28:25.954Z,1.75
2023-05-05T15:33:49.417Z,2.33
2023-05-05T15:39:11.379Z,1.92
2023-05-05T15:44:33.109Z,2.65
2023-05-05T15:49:55.731Z,3.03
2023-05-05T15:55:17.549Z,2.30
2023-05-05T16:00:39.633Z,3.05
2023-05-05T16:06:01.323Z,2.65
2023-05-05T16:11:23.902Z,4.25
2023-05-05T16:16:45.797Z,3.67
2023-05-05T16:22:07.700Z,3.25
2023-05-05T16:27:29.492Z,3.90
2023-05-05T16:32:51.771Z,4.50
2023-05-05T16:38:13.795Z,4.72
2023-05-05T16:43:38.472Z,4.45
2023-05-05T16:49:00.225Z,4.45
2023-05-05T16:54:21.924Z,4.50
2023-05-05T16:59:43.727Z,4.47
2023-05-05T17:05:06.159Z,3.53
2023-05-05T17:10:28.108Z,3.40
2023-05-05T17:15:51.282Z,3.47
2023-05-05T17:21:13.046Z,4.25
2023-05-05T17:26:35.094Z,3.10
2023-05-05T17:31:57.025Z,3.30
2023-05-05T17:37:18.778Z,2.88
2023-05-05T17:42:40.605Z,3.33
2023-05-05T17:48:02.311Z,3.53
2023-05-05T17:53:24.225Z,3.03
2023-05-05T17:58:45.936Z,2.80
2023-05-05T18:04:07.638Z,3.10
2023-05-05T18:09:29.363Z,3.20
2023-05-05T18:14:51.081Z,2.90
2023-05-05T18:20:12.930Z,3.28
2023-05-05T18:25:34.734Z,3.03
2023-05-05T18:30:56.745Z,2.42
2023-05-05T18:36:18.581Z,2.67
2023-05-05T18:41:40.894Z,2.70
2023-05-05T18:47:02.726Z,3.10
2023-05-05T18:52:24.726Z,2.50
2023-05-05T18:57:46.452Z,2.20
2023-05-05T19:03:08.181Z,2.88
2023-05-05T19:08:30.010Z,2.83
2023-05-05T19:13:51.973Z,3.70
2023-05-05T19:19:13.958Z,3.47
2023-05-05T19:24:35.711Z,3.88
2023-05-05T19:29:57.420Z,3.40
2023-05-05T19:35:19.199Z,3.25
2023-05-05T19:40:41.374Z,2.83
2023-05-05T19:46:03.174Z,3.40
2023-05-05T19:51:25.005Z,3.30
2023-05-05T19:56:46.862Z,4.35
2023-05-05T20:02:10.074Z,4.55
2023-05-05T20:07:31.817Z,3.38
2023-05-05T20:12:53.950Z,3.53
2023-05-05T20:18:15.676Z,3.20
2023-05-05T20:23:37.475Z,3.35
2023-05-05T20:28:59.194Z,3.13
2023-05-05T20:34:23.987Z,3.90
2023-05-05T20:39:47.217Z,3.75
2023-05-05T20:45:10.595Z,3.60
2023-05-05T20:50:32.461Z,3.90
2023-05-05T20:55:54.188Z,3.83
2023-05-05T21:01:16.015Z,3.28
2023-05-05T21:06:38.173Z,3.10
2023-05-05T21:11:59.982Z,3.10
2023-05-05T21:17:21.725Z,3.10
2023-05-05T21:22:43.660Z,3.30
2023-05-05T21:28:05.353Z,3.30
2023-05-05T21:33:27.233Z,3.35
2023-05-05T21:38:49.362Z,2.97
2023-05-05T21:44:11.185Z,3.45
2023-05-05T21:49:32.969Z,3.70
2023-05-05T21:54:54.671Z,3.63
2023-05-05T22:00:16.773Z,3.30
2023-05-05T22:05:38.650Z,2.65
2023-05-05T22:11:00.473Z,2.85
2023-05-05T22:16:22.203Z,2.83
2023-05-05T22:21:44.015Z,3.10
2023-05-05T22:27:05.929Z,2.63
2023-05-05T22:32:27.675Z,3.00
2023-05-05T22:37:49.385Z,2.80
2023-05-05T22:43:11.134Z,2.80
2023-05-05T22:48:32.875Z,2.53
2023-05-05T22:53:54.749Z,3.40
2023-05-05T22:59:16.510Z,3.08
2023-05-05T23:04:38.281Z,3.13
2023-05-05T23:10:00.172Z,4.03
2023-05-05T23:15:21.911Z,3.42
2023-05-05T23:20:43.693Z,3.47
2023-05-05T23:26:05.404Z,3.58
2023-05-05T23:31:27.321Z,3.65
2023-05-05T23:36:49.063Z,3.65
2023-05-05T23:42:10.773Z,3.40
2023-05-05T23:47:32.591Z,3.33
2023-05-05T23:52:54.322Z,3.85
2023-05-05T23:58:16.016Z,3.35
